createdAt,value
2023-02-06T00:01:18.593Z,80.37
2023-02-06T00:07:38.581Z,79.46
2023-02-06T00:14:01.616Z,79.33
2023-02-06T00:20:21.628Z,80.15
2023-02-06T00:26:44.582Z,79.89
2023-02-06T00:33:04.625Z,79.71
2023-02-06T00:39:27.625Z,80.49
2023-02-06T00:45:47.938Z,81.22
2023-02-06T00:52:10.602Z,81.65
2023-02-06T00:58:30.722Z,81.64
2023-02-06T01:04:53.684Z,82.21
2023-02-06T01:11:13.665Z,82.49
2023-02-06T01:17:36.649Z,82.01
2023-02-06T01:23:56.601Z,81.75
2023-02-06T01:30:19.735Z,81.51
2023-02-06T01:36:39.706Z,81.53
2023-02-06T01:43:02.556Z,82
2023-02-06T01:49:22.659Z,82.4
2023-02-06T01:55:45.616Z,82.89
2023-02-06T02:02:05.667Z,83
2023-02-06T02:08:28.599Z,83.65
2023-02-06T02:14:48.665Z,84.31
2023-02-06T02:21:11.651Z,84.64
2023-02-06T02:27:31.636Z,84.71
2023-02-06T02:33:54.649Z,84.77
2023-02-06T02:40:14.639Z,84.22
2023-02-06T02:46:37.603Z,84.82
2023-02-06T02:52:57.653Z,85.32
2023-02-06T02:59:20.685Z,86.71
2023-02-06T03:05:40.659Z,87.41
2023-02-06T03:12:03.620Z,87.88
2023-02-06T03:18:23.577Z,87.63
2023-02-06T03:24:46.601Z,87.67
2023-02-06T03:31:06.640Z,87.5
2023-02-06T03:37:29.621Z,87.55
2023-02-06T03:43:49.600Z,87.69
2023-02-06T03:50:12.650Z,88.11
2023-02-06T03:56:32.595Z,88.54
2023-02-06T04:02:55.594Z,88.28
2023-02-06T04:09:15.696Z,87.62
2023-02-06T04:25:26.605Z,88
2023-02-06T04:31:46.588Z,88
2023-02-06T04:38:09.608Z,87.95
2023-02-06T04:44:29.604Z,88.04
2023-02-06T04:50:52.886Z,88.24
2023-02-06T04:57:12.575Z,87.37
2023-02-06T05:03:35.696Z,87.72
2023-02-06T05:09:55.568Z,88.18
2023-02-06T05:16:18.649Z,88.02
2023-02-06T05:22:38.590Z,87.94
2023-02-06T05:29:01.572Z,87.98
2023-02-06T05:35:21.605Z,87.99
2023-02-06T05:41:44.647Z,87.62
2023-02-06T05:48:04.611Z,87.72
2023-02-06T05:54:27.607Z,86.77
2023-02-06T06:00:47.639Z,87.64
2023-02-06T06:07:10.606Z,87.62
2023-02-06T06:13:30.589Z,87.83
2023-02-06T06:19:53.691Z,87.74
2023-02-06T06:26:13.708Z,87.65
2023-02-06T06:32:36.604Z,87.81
2023-02-06T06:38:56.614Z,88.19
2023-02-06T06:45:19.699Z,89.28
2023-02-06T06:51:39.685Z,88.89
2023-02-06T06:58:02.690Z,88.83
2023-02-06T07:04:22.584Z,88.81
2023-02-06T07:10:45.855Z,89.39
2023-02-06T07:17:05.605Z,88.89
2023-02-06T07:23:28.574Z,89.29
2023-02-06T07:29:49.330Z,89.34
2023-02-06T07:36:12.907Z,88.77
2023-02-06T07:42:32.848Z,89.08
2023-02-06T07:48:55.569Z,89.07
2023-02-06T07:55:15.779Z,89.08
2023-02-06T08:01:38.640Z,89.06
2023-02-06T08:07:58.589Z,88.24
2023-02-06T08:14:21.638Z,87.98
2023-02-06T08:20:41.615Z,88.11
2023-02-06T08:27:04.606Z,87.85
2023-02-06T08:33:24.647Z,87.45
2023-02-06T08:39:47.613Z,87.49
2023-02-06T08:46:07.612Z,88.2
2023-02-06T08:52:30.690Z,88.09
2023-02-06T08:58:50.654Z,88.46
2023-02-06T09:05:13.702Z,87.57
2023-02-06T09:30:14.590Z,87.43
2023-02-06T09:36:34.594Z,86.16
2023-02-06T09:42:57.620Z,86.53
2023-02-06T09:49:17.616Z,86.06
2023-02-06T09:55:40.688Z,82.09
2023-02-06T10:02:00.622Z,80.52
2023-02-06T10:08:23.697Z,81.34
2023-02-06T10:14:43.624Z,79.98
2023-02-06T10:21:06.645Z,79.64
2023-02-06T10:27:26.709Z,79.82
2023-02-06T10:33:49.627Z,78.87
2023-02-06T10:40:09.600Z,79.49
2023-02-06T10:46:32.645Z,77.96
2023-02-06T10:52:52.564Z,76.96
2023-02-06T10:59:15.666Z,76.68
2023-02-06T11:05:36.333Z,76.68
2023-02-06T11:11:58.619Z,76.73
2023-02-06T11:18:18.628Z,74.94
2023-02-06T11:24:41.650Z,75.35
2023-02-06T11:31:01.613Z,75.75
2023-02-06T11:37:24.645Z,73.45
2023-02-06T11:43:44.616Z,72.41
2023-02-06T11:50:07.616Z,72.63
2023-02-06T11:56:27.638Z,70.1
2023-02-06T12:02:50.657Z,70.39
2023-02-06T12:09:10.577Z,68.89
2023-02-06T12:15:45.783Z,69.41
2023-02-06T12:21:53.696Z,69.96
2023-02-06T12:28:16.643Z,70.67
2023-02-06T12:34:36.897Z,69.81
2023-02-06T12:40:59.614Z,69.19
2023-02-06T12:47:19.664Z,70.08
2023-02-06T12:53:42.782Z,68.86
2023-02-06T13:00:02.632Z,69.23
2023-02-06T13:06:25.597Z,71.39
2023-02-06T13:12:45.587Z,71.14
2023-02-06T13:19:08.644Z,70.68
2023-02-06T13:25:28.634Z,68.93
2023-02-06T13:31:51.700Z,68.19
2023-02-06T13:38:11.848Z,68.93
2023-02-06T13:44:34.583Z,69.47
2023-02-06T13:50:54.602Z,68.34
2023-02-06T13:57:17.639Z,71.22
2023-02-06T14:03:37.601Z,71.57
2023-02-06T14:10:00.686Z,72.4
2023-02-06T14:16:20.659Z,73.21
2023-02-06T14:32:30.531Z,73.57
2023-02-06T14:38:50.566Z,73.53
2023-02-06T14:45:13.564Z,72.74
2023-02-06T14:51:33.669Z,70.89
2023-02-06T14:57:56.565Z,70.24
2023-02-06T15:04:16.629Z,70.41
2023-02-06T15:10:39.651Z,68.9
2023-02-06T15:16:59.606Z,68.54
2023-02-06T15:23:22.671Z,68.39
2023-02-06T15:29:42.624Z,69.1
2023-02-06T15:36:05.668Z,69.32
2023-02-06T15:42:25.857Z,69.04
2023-02-06T15:48:48.595Z,68.89
2023-02-06T15:55:08.637Z,69.24
2023-02-06T16:01:31.602Z,69.83
2023-02-06T16:07:51.647Z,70.55
2023-02-06T16:14:14.594Z,70.85
2023-02-06T16:20:34.604Z,71.28
2023-02-06T16:26:57.687Z,71.55
2023-02-06T16:33:17.673Z,72.04
2023-02-06T16:39:40.633Z,72.79
2023-02-06T16:46:00.723Z,73.01
2023-02-06T16:52:23.629Z,72.95
2023-02-06T16:58:43.567Z,73.12
2023-02-06T17:05:06.661Z,73.22
2023-02-06T17:11:26.597Z,72.81
2023-02-06T17:17:49.655Z,73.31
2023-02-06T17:24:09.691Z,72.99
2023-02-06T17:30:32.663Z,73.05
2023-02-06T17:36:52.600Z,73
2023-02-06T17:43:15.669Z,73.36
2023-02-06T17:49:35.575Z,73.29
2023-02-06T17:55:58.597Z,73.44
2023-02-06T18:02:18.638Z,73.81
2023-02-06T18:08:41.637Z,73.6
2023-02-06T18:15:01.655Z,74.28
2023-02-06T18:21:24.601Z,75.01
2023-02-06T18:27:44.661Z,75.55
2023-02-06T18:34:07.619Z,75.43
2023-02-06T18:40:27.584Z,75.71
2023-02-06T18:46:50.624Z,75.94
2023-02-06T18:53:10.607Z,75.96
2023-02-06T18:59:33.617Z,76.25
2023-02-06T19:05:53.579Z,76.72
2023-02-06T19:12:16.710Z,76.68
2023-02-06T19:18:39.005Z,76.96
2023-02-06T19:24:59.618Z,77.07
2023-02-06T19:41:07.579Z,77.55
2023-02-06T19:47:27.595Z,78.18
2023-02-06T19:53:50.640Z,78.32
2023-02-06T20:00:10.646Z,78.99
2023-02-06T20:06:33.603Z,79.62
2023-02-06T20:12:53.652Z,80.32
2023-02-06T20:19:16.607Z,80.49
2023-02-06T20:25:36.604Z,80.21
2023-02-06T20:31:59.668Z,80.19
2023-02-06T20:38:19.621Z,80.82
2023-02-06T20:44:42.628Z,80.74
2023-02-06T20:51:02.594Z,80.73
2023-02-06T20:57:25.958Z,81.03
2023-02-06T21:03:45.662Z,81.47
2023-02-06T21:10:08.622Z,81.74
2023-02-06T21:16:28.652Z,81.89
2023-02-06T21:22:51.615Z,82.21
2023-02-06T21:29:11.623Z,81.97
2023-02-06T21:35:34.693Z,82.88
2023-02-06T21:41:54.588Z,82.99
2023-02-06T21:48:17.617Z,82.74
2023-02-06T21:54:37.711Z,82.81
2023-02-06T22:01:00.607Z,82.95
2023-02-06T22:07:20.606Z,83.98
2023-02-06T22:13:43.691Z,83.69
2023-02-06T22:20:03.624Z,83.58
2023-02-06T22:26:26.647Z,83.29
2023-02-06T22:32:46.616Z,83.61
2023-02-06T22:39:09.600Z,83.31
2023-02-06T22:45:29.576Z,83.51
2023-02-06T22:51:52.604Z,83.84
2023-02-06T22:58:12.752Z,83.81
2023-02-06T23:21:09.594Z,85.37
2023-02-06T23:27:29.573Z,85.16
2023-02-06T23:33:52.611Z,85.23
2023-02-06T23:40:12.777Z,85.94
2023-02-06T23:46:35.594Z,85.61
2023-02-06T23:52:55.572Z,86.02
2023-02-06T23:59:18.623Z,85.66
